Kwinana, Australia
Current Conditions -  °F | °C
As of 5:00 PM on Thursday 23 Oct 2014 (Local Time) from YPJT Reporting Station
Scattered Clouds Scattered Clouds  
Wind Chill: 70°   Ceiling: Unl
Heat Index: 70°   Visibility: 6mi
Dew Point: 54°   Wind: 15mph
Humidity: 56%   Direction: 230°SW
Pressure: 30"   Gusts: NA
Location:  32.25°S, 115.81°E
Report Text: YPJT 230900Z AUTO 23013KT 9999 // SCT029 SCT061 21/12 Q1016
Loading
Personal Weather Stations






























Interactive Weather Map
Tropical Storm Tracking
New forecast layout! Learn more

10-Day Weather Forecast

Advertisements
Track Severe Weather on mobile